createdAt,value
2019-02-09T00:00:14.962Z,8.40
2019-02-09T00:02:42.507Z,8.40
2019-02-09T00:05:10.015Z,8.40
2019-02-09T00:07:37.510Z,8.40
2019-02-09T00:10:05.251Z,8.40
2019-02-09T00:12:32.722Z,8.40
2019-02-09T00:15:00.237Z,8.40
2019-02-09T00:17:27.671Z,8.40
2019-02-09T00:19:55.127Z,8.40
2019-02-09T00:22:22.644Z,8.40
2019-02-09T00:24:50.007Z,8.30
2019-02-09T00:27:17.415Z,8.30
2019-02-09T00:29:46.251Z,8.30
2019-02-09T00:32:14.092Z,8.20
2019-02-09T00:34:41.538Z,8.20
2019-02-09T00:37:09.068Z,8.20
2019-02-09T00:39:37.869Z,8.30
2019-02-09T00:42:05.421Z,8.30
2019-02-09T00:44:32.804Z,8.30
2019-02-09T00:47:00.231Z,8.30
2019-02-09T00:49:27.747Z,8.30
2019-02-09T00:51:55.105Z,8.30
2019-02-09T00:54:22.460Z,8.20
2019-02-09T00:56:49.922Z,8.20
2019-02-09T00:59:17.325Z,8.20
2019-02-09T01:01:44.820Z,8.10
2019-02-09T01:04:13.409Z,8.10
2019-02-09T01:06:40.812Z,8.10
2019-02-09T01:09:11.138Z,8.20
2019-02-09T01:11:38.610Z,8.20
2019-02-09T01:14:06.116Z,8.30
2019-02-09T01:16:33.611Z,8.30
2019-02-09T01:19:01.105Z,8.30
2019-02-09T01:21:28.605Z,8.30
2019-02-09T01:23:56.084Z,8.40
2019-02-09T01:26:23.576Z,8.40
2019-02-09T01:28:51.067Z,8.40
2019-02-09T01:31:18.566Z,8.40
2019-02-09T01:33:46.009Z,8.40
2019-02-09T01:36:13.363Z,8.40
2019-02-09T01:38:40.843Z,8.40
2019-02-09T01:41:08.439Z,8.40
2019-02-09T01:43:35.937Z,8.40
2019-02-09T01:46:03.590Z,8.40
2019-02-09T01:48:31.107Z,8.40
2019-02-09T01:50:58.598Z,8.50
2019-02-09T01:53:25.951Z,8.50
2019-02-09T01:55:53.453Z,8.50
2019-02-09T01:58:20.923Z,8.50
2019-02-09T02:00:48.406Z,8.50
2019-02-09T02:03:15.887Z,8.50
2019-02-09T02:05:43.365Z,8.60
2019-02-09T02:08:12.354Z,8.60
2019-02-09T02:10:40.739Z,8.60
2019-02-09T02:13:09.381Z,8.60
2019-02-09T02:15:37.483Z,8.60
2019-02-09T02:18:06.003Z,8.60
2019-02-09T02:20:33.515Z,8.70
2019-02-09T02:23:01.295Z,8.70
2019-02-09T02:25:28.777Z,8.70
2019-02-09T02:27:56.231Z,8.70
2019-02-09T02:30:25.690Z,8.70
2019-02-09T02:32:53.294Z,8.70
2019-02-09T02:35:20.876Z,8.70
2019-02-09T02:37:48.401Z,8.70
2019-02-09T02:40:16.737Z,8.70
2019-02-09T02:42:44.221Z,8.70
2019-02-09T02:45:12.665Z,8.70
2019-02-09T02:47:40.213Z,8.70
2019-02-09T02:50:09.536Z,8.70
2019-02-09T02:52:37.046Z,8.60
2019-02-09T02:55:05.002Z,8.60
2019-02-09T02:57:32.482Z,8.70
2019-02-09T02:59:59.954Z,8.70
2019-02-09T03:02:27.496Z,8.70
2019-02-09T03:04:55.045Z,8.70
2019-02-09T03:07:22.540Z,8.70
2019-02-09T03:09:50.075Z,8.70
2019-02-09T03:12:17.559Z,8.70
2019-02-09T03:14:45.045Z,8.70
2019-02-09T03:17:12.520Z,8.70
2019-02-09T03:19:40.101Z,8.70
2019-02-09T03:22:07.579Z,8.60
2019-02-09T03:24:35.041Z,8.50
2019-02-09T03:27:02.580Z,8.30
2019-02-09T03:29:30.540Z,8.20
2019-02-09T03:31:57.980Z,8.20
2019-02-09T03:34:25.501Z,8.10
2019-02-09T03:36:52.954Z,8.10
2019-02-09T03:39:20.487Z,8.10
2019-02-09T03:41:50.643Z,8.10
2019-02-09T03:44:18.178Z,8.00
2019-02-09T03:46:45.905Z,8.00
2019-02-09T03:49:13.615Z,8.00
2019-02-09T03:51:41.094Z,8.00
2019-02-09T03:54:08.578Z,8.00
2019-02-09T03:56:36.049Z,8.00
2019-02-09T03:59:03.592Z,8.00
2019-02-09T04:01:31.285Z,8.00
2019-02-09T04:03:58.736Z,8.00
2019-02-09T04:06:26.158Z,8.00
2019-02-09T04:08:53.740Z,8.00
2019-02-09T04:11:21.123Z,8.10
2019-02-09T04:13:48.567Z,8.00
2019-02-09T04:16:16.049Z,8.10
2019-02-09T04:18:43.570Z,8.10
2019-02-09T04:21:11.074Z,8.10
2019-02-09T04:23:38.573Z,8.00
2019-02-09T04:26:05.998Z,7.90
2019-02-09T04:28:33.419Z,7.80
2019-02-09T04:31:05.882Z,7.70
2019-02-09T04:33:30.252Z,7.70
2019-02-09T04:35:57.810Z,7.60
2019-02-09T04:38:25.368Z,7.60
2019-02-09T04:40:52.788Z,7.60
2019-02-09T04:43:20.224Z,7.60
2019-02-09T04:45:47.699Z,7.50
2019-02-09T04:48:15.189Z,7.50
2019-02-09T04:50:43.864Z,7.60
2019-02-09T04:53:11.328Z,7.50
2019-02-09T04:55:38.816Z,7.60
2019-02-09T04:58:08.214Z,7.50
2019-02-09T05:00:35.685Z,7.50
2019-02-09T05:03:05.092Z,7.60
2019-02-09T05:05:32.810Z,7.60
2019-02-09T05:08:00.287Z,7.50
2019-02-09T05:10:27.937Z,7.50
2019-02-09T05:12:55.390Z,7.40
2019-02-09T05:15:22.837Z,7.40
2019-02-09T05:17:50.356Z,7.40
2019-02-09T05:20:19.316Z,7.30
2019-02-09T05:22:47.036Z,7.30
2019-02-09T05:25:14.820Z,7.20
2019-02-09T05:27:42.915Z,7.10
2019-02-09T05:30:15.602Z,7.00
2019-02-09T05:32:43.066Z,7.00
2019-02-09T05:35:10.782Z,7.00
2019-02-09T05:37:38.315Z,7.00
2019-02-09T05:40:07.230Z,7.00
2019-02-09T05:42:34.694Z,7.00
2019-02-09T05:45:02.241Z,7.00
2019-02-09T05:47:29.769Z,7.00
2019-02-09T05:49:57.242Z,7.10
2019-02-09T05:52:24.803Z,7.10
2019-02-09T05:54:52.284Z,7.20
2019-02-09T05:57:22.479Z,7.30
2019-02-09T05:59:51.279Z,7.30
2019-02-09T06:02:18.703Z,7.40
2019-02-09T06:04:46.263Z,7.50
2019-02-09T06:07:13.745Z,7.50
2019-02-09T06:09:41.226Z,7.60
2019-02-09T06:12:08.765Z,7.60
2019-02-09T06:14:36.271Z,7.60
2019-02-09T06:17:03.737Z,7.60
2019-02-09T06:19:31.219Z,7.60
2019-02-09T06:21:58.708Z,7.50
2019-02-09T06:24:26.382Z,7.50
2019-02-09T06:26:53.852Z,7.50
2019-02-09T06:29:21.395Z,7.40
2019-02-09T06:31:48.979Z,7.40
2019-02-09T06:34:16.465Z,7.40
2019-02-09T06:36:43.950Z,7.40
2019-02-09T06:39:11.678Z,7.40
2019-02-09T06:41:39.331Z,7.40
2019-02-09T06:44:06.817Z,7.40
2019-02-09T06:46:34.309Z,7.30
2019-02-09T06:49:01.836Z,7.30
2019-02-09T06:51:29.354Z,7.30
2019-02-09T06:53:56.899Z,7.30
2019-02-09T06:56:24.347Z,7.20
2019-02-09T06:58:51.701Z,7.30
2019-02-09T07:01:19.169Z,7.30
2019-02-09T07:03:46.633Z,7.30
2019-02-09T07:06:14.089Z,7.40
2019-02-09T07:08:41.618Z,7.40
2019-02-09T07:11:09.085Z,7.40
2019-02-09T07:13:36.477Z,7.50
2019-02-09T07:16:07.045Z,7.50
2019-02-09T07:18:34.427Z,7.60
2019-02-09T07:21:01.949Z,7.60
2019-02-09T07:23:29.457Z,7.70
2019-02-09T07:25:56.832Z,7.70
2019-02-09T07:28:24.309Z,7.80
2019-02-09T07:30:51.885Z,7.70
2019-02-09T07:33:19.361Z,7.80
2019-02-09T07:35:49.108Z,7.80
2019-02-09T07:38:16.593Z,7.80
2019-02-09T07:40:44.083Z,7.90
2019-02-09T07:43:11.553Z,7.90
2019-02-09T07:45:39.099Z,7.80
2019-02-09T07:48:06.547Z,7.80
2019-02-09T07:50:34.109Z,7.80
2019-02-09T07:53:01.679Z,7.80
2019-02-09T07:55:29.170Z,7.80
2019-02-09T07:57:56.521Z,7.80
2019-02-09T08:00:27.814Z,7.80
2019-02-09T08:02:55.627Z,7.80
2019-02-09T08:05:25.106Z,7.80
2019-02-09T08:07:52.572Z,7.80
2019-02-09T08:10:22.346Z,7.90
2019-02-09T08:12:49.825Z,7.90
2019-02-09T08:15:21.736Z,7.90
2019-02-09T08:17:49.246Z,8.00
2019-02-09T08:20:17.563Z,8.00
2019-02-09T08:22:45.638Z,7.90
2019-02-09T08:25:15.659Z,8.00
2019-02-09T08:27:43.119Z,8.00
2019-02-09T08:30:12.563Z,8.00
2019-02-09T08:32:40.073Z,8.00
2019-02-09T08:35:07.846Z,8.10
2019-02-09T08:37:35.345Z,8.10
2019-02-09T08:40:03.175Z,8.10
2019-02-09T08:42:30.622Z,8.20
2019-02-09T08:44:58.098Z,8.10
2019-02-09T08:47:25.620Z,8.20
2019-02-09T08:49:53.110Z,8.20
2019-02-09T08:52:20.644Z,8.20
2019-02-09T08:54:48.365Z,8.20
2019-02-09T08:57:15.826Z,8.20
2019-02-09T08:59:43.376Z,8.20
2019-02-09T09:02:10.911Z,8.20
2019-02-09T09:04:38.406Z,8.10
2019-02-09T09:07:06.210Z,8.10
2019-02-09T09:09:33.768Z,8.00
2019-02-09T09:12:01.354Z,7.90
2019-02-09T09:14:28.824Z,7.90
2019-02-09T09:16:56.293Z,7.90
2019-02-09T09:19:23.854Z,8.00
2019-02-09T09:21:51.412Z,8.10
2019-02-09T09:24:19.062Z,8.10
2019-02-09T09:26:47.602Z,8.20
2019-02-09T09:29:15.158Z,8.30
2019-02-09T09:31:42.610Z,8.30
2019-02-09T09:34:10.181Z,8.40
2019-02-09T09:36:37.758Z,8.40
2019-02-09T09:39:07.685Z,8.50
2019-02-09T09:41:35.206Z,8.60
2019-02-09T09:44:03.620Z,8.60
2019-02-09T09:46:31.004Z,8.60
2019-02-09T09:48:58.534Z,8.60
2019-02-09T09:51:26.011Z,8.50
2019-02-09T09:53:53.947Z,8.50
2019-02-09T09:56:21.338Z,8.60
2019-02-09T09:58:48.758Z,8.60
2019-02-09T10:01:16.878Z,8.70
2019-02-09T10:03:44.297Z,8.70
2019-02-09T10:06:12.057Z,8.80
2019-02-09T10:08:41.589Z,9.00
2019-02-09T10:11:09.112Z,9.10
2019-02-09T10:13:36.629Z,9.10
2019-02-09T10:16:04.272Z,9.00
2019-02-09T10:18:31.893Z,8.90
2019-02-09T10:20:59.447Z,8.60
2019-02-09T10:23:27.030Z,8.50
2019-02-09T10:25:54.513Z,8.40
2019-02-09T10:28:22.058Z,8.40
2019-02-09T10:30:49.716Z,8.40
2019-02-09T10:33:17.210Z,8.30
2019-02-09T10:35:44.699Z,8.40
2019-02-09T10:38:13.826Z,8.40
2019-02-09T10:40:41.286Z,8.50
2019-02-09T10:43:11.995Z,8.60
2019-02-09T10:45:39.604Z,8.70
2019-02-09T10:48:07.617Z,8.80
2019-02-09T10:50:37.280Z,8.90
2019-02-09T10:53:05.041Z,9.00
2019-02-09T10:55:32.451Z,9.10
2019-02-09T10:58:00.014Z,9.20
2019-02-09T11:00:34.059Z,9.20
2019-02-09T11:03:04.915Z,9.30
2019-02-09T11:05:35.121Z,9.30
2019-02-09T11:08:02.923Z,9.30
2019-02-09T11:10:30.603Z,9.40
2019-02-09T11:12:58.143Z,9.40
2019-02-09T11:15:25.703Z,9.30
2019-02-09T11:17:54.360Z,9.30
2019-02-09T11:20:21.933Z,9.30
2019-02-09T11:22:49.443Z,9.40
2019-02-09T11:25:17.292Z,9.50
2019-02-09T11:27:44.783Z,9.50
2019-02-09T11:30:20.399Z,9.60
2019-02-09T11:32:48.065Z,9.60
2019-02-09T11:35:15.655Z,9.60
2019-02-09T11:37:43.148Z,9.50
2019-02-09T11:40:11.494Z,9.40
2019-02-09T11:42:38.979Z,9.30
2019-02-09T11:45:09.868Z,9.20
2019-02-09T11:47:37.645Z,9.00
2019-02-09T11:50:06.462Z,8.90
2019-02-09T11:52:34.150Z,8.90
2019-02-09T11:55:02.247Z,8.80
2019-02-09T11:57:29.721Z,8.80
2019-02-09T11:59:57.201Z,8.70
2019-02-09T12:02:24.657Z,8.60
2019-02-09T12:04:52.147Z,8.50
2019-02-09T12:07:19.710Z,8.50
2019-02-09T12:09:47.247Z,8.90
2019-02-09T12:12:14.694Z,9.10
2019-02-09T12:14:42.219Z,9.30
2019-02-09T12:17:09.944Z,9.60
2019-02-09T12:19:37.524Z,10.10
2019-02-09T12:22:05.269Z,10.40
2019-02-09T12:24:32.802Z,10.90
2019-02-09T12:27:00.285Z,10.80
2019-02-09T12:29:27.738Z,10.50
2019-02-09T12:31:55.204Z,10.30
2019-02-09T12:34:22.687Z,10.90
2019-02-09T12:36:50.194Z,11.10
2019-02-09T12:39:17.679Z,11.60
2019-02-09T12:41:45.139Z,11.70
2019-02-09T12:44:12.704Z,12.00
2019-02-09T12:46:40.362Z,12.00
2019-02-09T12:49:07.845Z,12.30
2019-02-09T12:51:35.469Z,12.30
2019-02-09T12:54:03.150Z,12.40
2019-02-09T12:56:31.586Z,12.60
2019-02-09T12:58:59.625Z,12.90
2019-02-09T13:01:27.247Z,12.80
2019-02-09T13:03:55.202Z,12.60
2019-02-09T13:06:22.718Z,12.50
2019-02-09T13:08:51.618Z,12.50
2019-02-09T13:11:19.138Z,12.10
2019-02-09T13:13:46.638Z,11.90
2019-02-09T13:16:14.183Z,11.60
2019-02-09T13:18:41.732Z,11.40
2019-02-09T13:21:09.212Z,11.30
2019-02-09T13:23:36.700Z,11.50
2019-02-09T13:28:51.776Z,11.10
2019-02-09T13:31:19.270Z,11.00
2019-02-09T13:33:46.741Z,10.80
2019-02-09T13:36:14.290Z,10.70
2019-02-09T13:38:41.999Z,10.70
2019-02-09T13:41:09.506Z,10.70
2019-02-09T13:43:36.966Z,10.70
2019-02-09T13:46:04.497Z,10.90
2019-02-09T13:48:31.991Z,11.00
2019-02-09T13:50:59.560Z,11.10
2019-02-09T13:53:29.443Z,11.20
2019-02-09T13:55:57.004Z,11.40
2019-02-09T13:58:24.522Z,11.50
2019-02-09T14:00:51.972Z,11.50
2019-02-09T14:03:19.492Z,11.60
2019-02-09T14:05:47.049Z,11.50
2019-02-09T14:08:14.586Z,11.50
2019-02-09T14:10:42.181Z,11.40
2019-02-09T14:13:14.675Z,11.20
2019-02-09T14:15:39.162Z,11.30
2019-02-09T14:18:08.170Z,11.10
2019-02-09T14:20:35.673Z,11.00
2019-02-09T14:23:06.650Z,10.80
2019-02-09T14:25:34.502Z,10.70
2019-02-09T14:28:03.076Z,10.30
2019-02-09T14:30:31.797Z,10.00
2019-02-09T14:33:01.138Z,10.50
2019-02-09T14:35:30.841Z,10.80
2019-02-09T14:37:58.458Z,11.30
2019-02-09T14:40:28.077Z,11.80
2019-02-09T14:42:55.712Z,11.60
2019-02-09T14:45:28.009Z,11.90
2019-02-09T14:47:55.519Z,12.30
2019-02-09T14:50:23.186Z,12.30
2019-02-09T14:52:50.818Z,12.10
2019-02-09T14:55:21.598Z,11.80
2019-02-09T14:57:49.141Z,11.50
2019-02-09T15:00:18.777Z,11.60
2019-02-09T15:02:53.530Z,11.50
2019-02-09T15:05:16.153Z,11.30
2019-02-09T15:07:43.778Z,11.20
2019-02-09T15:10:13.653Z,11.30
2019-02-09T15:12:41.124Z,11.40
2019-02-09T15:15:13.597Z,11.70
2019-02-09T15:17:41.189Z,11.80
2019-02-09T15:20:13.877Z,11.70
2019-02-09T15:22:41.610Z,11.50
2019-02-09T15:25:09.173Z,11.20
2019-02-09T15:27:39.377Z,11.00
2019-02-09T15:30:08.377Z,10.90
2019-02-09T15:32:35.925Z,10.80
2019-02-09T15:35:04.697Z,10.70
2019-02-09T15:37:32.079Z,10.60
2019-02-09T15:39:59.683Z,10.50
2019-02-09T15:42:27.195Z,10.40
2019-02-09T15:44:54.778Z,10.30
2019-02-09T15:47:22.394Z,10.20
2019-02-09T15:49:49.971Z,10.20
2019-02-09T15:52:17.518Z,10.20
2019-02-09T15:54:45.022Z,10.10
2019-02-09T15:57:12.559Z,10.10
2019-02-09T15:59:40.089Z,10.10
2019-02-09T16:02:07.735Z,10.00
2019-02-09T16:04:40.229Z,10.00
2019-02-09T16:07:09.959Z,10.00
2019-02-09T16:09:37.541Z,9.90
2019-02-09T16:12:06.875Z,10.00
2019-02-09T16:14:34.661Z,10.00
2019-02-09T16:17:02.195Z,9.90
2019-02-09T16:19:29.710Z,9.90
2019-02-09T16:22:00.040Z,9.90
2019-02-09T16:24:27.692Z,9.70
2019-02-09T16:26:56.973Z,9.40
2019-02-09T16:29:24.461Z,9.20
2019-02-09T16:31:55.740Z,9.10
2019-02-09T16:34:25.578Z,9.00
2019-02-09T16:36:52.683Z,8.90
2019-02-09T16:39:20.182Z,9.00
2019-02-09T16:41:49.967Z,9.00
2019-02-09T16:44:19.622Z,8.80
2019-02-09T16:46:47.225Z,8.60
2019-02-09T16:49:14.845Z,8.40
2019-02-09T16:51:42.425Z,8.30
2019-02-09T16:54:13.740Z,8.20
2019-02-09T16:56:41.413Z,8.20
2019-02-09T16:59:49.389Z,8.10
2019-02-09T17:02:02.741Z,8.10
2019-02-09T17:04:58.101Z,8.10
2019-02-09T17:07:34.795Z,8.10
2019-02-09T17:13:33.260Z,8.10
2019-02-09T17:20:20.427Z,8.20
2019-02-09T17:23:18.376Z,8.20
2019-02-09T17:32:42.304Z,8.20
2019-02-09T17:39:27.766Z,8.40
2019-02-09T17:44:37.569Z,8.60
2019-02-09T17:47:05.082Z,8.60
2019-02-09T17:49:32.580Z,8.70
2019-02-09T17:52:00.080Z,8.70
2019-02-09T17:54:28.321Z,8.80
2019-02-09T17:56:55.818Z,8.80
2019-02-09T17:59:23.370Z,8.80
2019-02-09T18:01:50.886Z,8.80
2019-02-09T18:04:18.409Z,8.90
2019-02-09T18:06:45.948Z,9.00
2019-02-09T18:09:13.458Z,9.00
2019-02-09T18:11:40.939Z,9.00
2019-02-09T18:14:10.225Z,9.00
2019-02-09T18:16:37.780Z,9.00
2019-02-09T18:19:05.280Z,9.00
2019-02-09T18:21:32.658Z,9.00
2019-02-09T18:24:00.016Z,9.00
2019-02-09T18:26:27.523Z,9.00
2019-02-09T18:28:55.060Z,9.00
2019-02-09T18:31:22.663Z,9.00
2019-02-09T18:33:51.429Z,9.00
2019-02-09T18:36:19.056Z,8.90
2019-02-09T18:38:47.729Z,8.90
2019-02-09T18:41:15.195Z,8.90
2019-02-09T18:43:42.816Z,8.90
2019-02-09T18:46:10.302Z,9.00
2019-02-09T18:48:40.442Z,9.00
2019-02-09T18:51:07.980Z,9.00
2019-02-09T18:53:35.554Z,9.00
2019-02-09T18:56:04.296Z,9.00
2019-02-09T18:58:31.769Z,9.00
2019-02-09T19:00:59.248Z,9.00
2019-02-09T19:03:28.538Z,9.00
2019-02-09T19:05:55.914Z,9.00
2019-02-09T19:08:23.446Z,9.00
2019-02-09T19:10:50.909Z,8.90
2019-02-09T19:13:18.390Z,9.00
2019-02-09T19:15:45.893Z,9.10
2019-02-09T19:18:13.379Z,9.10
2019-02-09T19:20:43.577Z,9.10
2019-02-09T19:23:11.181Z,9.10
2019-02-09T19:25:38.708Z,9.10
2019-02-09T19:28:06.104Z,9.10
2019-02-09T19:30:34.080Z,9.10
2019-02-09T19:33:01.585Z,9.00
2019-02-09T19:35:29.035Z,9.00
2019-02-09T19:37:56.538Z,9.00
2019-02-09T19:40:24.094Z,9.00
2019-02-09T19:42:51.636Z,9.00
2019-02-09T19:45:23.982Z,9.00
2019-02-09T19:47:51.457Z,9.00
2019-02-09T19:50:19.103Z,9.00
2019-02-09T19:52:48.825Z,9.00
2019-02-09T19:55:18.526Z,9.00
2019-02-09T19:57:46.051Z,9.00
2019-02-09T20:00:18.760Z,9.00
2019-02-09T20:02:48.996Z,9.10
2019-02-09T20:05:19.819Z,9.00
2019-02-09T20:07:45.811Z,9.00
2019-02-09T20:10:14.787Z,9.00
2019-02-09T20:12:43.255Z,9.10
2019-02-09T20:15:12.843Z,9.00
2019-02-09T20:17:40.369Z,9.00
2019-02-09T20:20:09.397Z,9.00
2019-02-09T20:22:42.053Z,9.00
2019-02-09T20:25:15.059Z,9.00
2019-02-09T20:27:42.720Z,9.00
2019-02-09T20:30:24.718Z,8.90
2019-02-09T20:32:52.723Z,9.00
2019-02-09T20:35:27.533Z,8.90
2019-02-09T20:37:50.159Z,8.90
2019-02-09T20:40:27.936Z,8.90
2019-02-09T20:43:01.733Z,8.90
2019-02-09T20:45:25.944Z,8.90
2019-02-09T20:47:53.590Z,8.90
2019-02-09T20:50:22.789Z,8.90
2019-02-09T20:52:50.305Z,8.90
2019-02-09T20:55:19.308Z,8.90
2019-02-09T20:57:46.899Z,8.90
2019-02-09T21:00:18.441Z,9.00
2019-02-09T21:02:45.491Z,9.00
2019-02-09T21:05:13.428Z,9.00
2019-02-09T21:07:40.969Z,9.00
2019-02-09T21:10:14.904Z,9.00
2019-02-09T21:12:42.414Z,9.00
2019-02-09T21:15:11.122Z,9.00
2019-02-09T21:17:38.723Z,9.00
2019-02-09T21:20:06.343Z,9.00
2019-02-09T21:22:33.871Z,9.00
2019-02-09T21:25:01.422Z,9.00
2019-02-09T21:27:28.986Z,9.00
2019-02-09T21:29:56.551Z,9.00
2019-02-09T21:32:24.995Z,9.00
2019-02-09T21:34:52.536Z,9.00
2019-02-09T21:37:20.195Z,8.90
2019-02-09T21:39:48.196Z,8.90
2019-02-09T21:42:16.727Z,8.90
2019-02-09T21:44:44.297Z,8.90
2019-02-09T21:47:12.920Z,9.00
2019-02-09T21:49:42.487Z,9.00
2019-02-09T21:52:12.371Z,9.00
2019-02-09T21:54:40.915Z,8.90
2019-02-09T21:57:10.377Z,8.90
2019-02-09T21:59:39.969Z,9.00
2019-02-09T22:02:07.696Z,8.90
2019-02-09T22:04:39.923Z,9.00
2019-02-09T22:07:08.156Z,9.00
2019-02-09T22:09:35.667Z,9.00
2019-02-09T22:12:04.051Z,8.90
2019-02-09T22:14:32.372Z,9.00
2019-02-09T22:17:00.184Z,8.90
2019-02-09T22:19:28.754Z,8.90
2019-02-09T22:21:59.249Z,8.90
2019-02-09T22:24:27.392Z,8.80
2019-02-09T22:26:55.565Z,8.80
2019-02-09T22:29:23.207Z,8.80
2019-02-09T22:31:51.439Z,8.80
2019-02-09T22:34:19.563Z,8.80
2019-02-09T22:36:47.207Z,8.70
2019-02-09T22:39:15.190Z,8.70
2019-02-09T22:41:51.105Z,8.80
2019-02-09T22:44:18.590Z,8.80
2019-02-09T22:46:46.150Z,8.80
2019-02-09T22:49:16.209Z,8.80
2019-02-09T22:51:44.174Z,8.80
2019-02-09T22:54:11.827Z,8.80
2019-02-09T22:56:39.388Z,8.80
2019-02-09T22:59:06.902Z,8.80
2019-02-09T23:01:46.716Z,8.80
2019-02-09T23:04:31.658Z,8.80
2019-02-09T23:07:11.505Z,8.70
2019-02-09T23:09:39.038Z,8.80
2019-02-09T23:12:06.606Z,8.70
2019-02-09T23:14:34.167Z,8.70
2019-02-09T23:17:01.566Z,8.70
2019-02-09T23:19:29.336Z,8.70
2019-02-09T23:21:56.944Z,8.70
2019-02-09T23:24:24.507Z,8.70
2019-02-09T23:26:52.026Z,8.70
2019-02-09T23:29:19.540Z,8.70
2019-02-09T23:31:47.062Z,8.70
2019-02-09T23:34:14.708Z,8.70
2019-02-09T23:36:42.262Z,8.70
2019-02-09T23:39:09.774Z,8.70
2019-02-09T23:41:37.219Z,8.70
2019-02-09T23:44:04.789Z,8.60
2019-02-09T23:46:32.353Z,8.60
2019-02-09T23:48:59.905Z,8.60
2019-02-09T23:51:27.472Z,8.60
2019-02-09T23:53:55.052Z,8.50
2019-02-09T23:56:22.521Z,8.50
2019-02-09T23:58:50.043Z,8.50
